首页
METAR-TAF:

METAR-TAF

机场 :

特拉维夫 / 本·古里安, 以色列

本-古里安国际机场

纬度: 32-00N, 经度: 034-54E, 海拔: 40米

当前天气观测

该预报发布于15分钟前的21:50 UTC
风速6节,风向南转南东
温度 13°C
湿度 88%
气压 1016 hPa
能见度10公里或以上
少量云层高于3000英尺
散云层高于4000英尺

METAR: LLBG 172150Z 16006KT 9999 FEW030 SCT040 13/11 Q1016 NOSIG RMK RERA

时间: 00:05 (22:05 UTC)

预报

该预报发布于4小时和42分钟前的17:23 UTC
预报有效从17日的 18点(UTC)到 18日的 18点(UTC)
风速10节,风向南转南东
能见度10公里或以上
散云层高于2500英尺
成为
从 18日的 06点(UTC)到 18日的 08点(UTC)
风速15节,风向西转西南
少量云层高于5000英尺
几率 40%
从 18日的 16点(UTC)到 18日的 18点(UTC)
能見度: 4500
散云层高于5000英尺

TAF: LLBG 171723Z 1718/1818 16010KT 9999 SCT025 BECMG 1806/1808 25015KT FEW050 PROB40 1816/1818 4500 HZ SCT050 TX19/1812Z TN11/1804Z

超过4000个机场的气象观测和天气预报(METAR&TAF报告)。

可查询的气象台以黄色和红色小点在地图上表示。

将鼠标移到小点上方,可查看气象台名称。

然后点击查看天气观测和预报。

如需切换地图:点击带黑十字的绿色按钮放大地图;点击带横线的绿色按钮缩小地图;或者点击绿色箭头查看邻近地区的地图。


METAR-TAF: